Time;durP1;ratioP1;P1;durP2;ratioP2;P2;SDS_P1;SDS_P2;PMS_P1;PMS_P2;Temp;Humidity;BMP_temperature;BMP_pressure;BME280_temperature;BME280_humidity;BME280_pressure;Samples;Min_cycle;Max_cycle;Signal;HPM_P1;HPM_P2
2024/04/23 00:02:23;;;;;;;0.80;0.80;;;3.50;1.00;;;;;;6431909;22;20318;-92
2024/04/23 00:04:48;;;;;;;1.33;1.17;;;3.40;1.00;;;;;;6389937;22;20635;-92
2024/04/23 00:07:14;;;;;;;0.67;0.67;;;3.40;99.90;;;;;;6431713;22;20302;-92
2024/04/23 00:09:40;;;;;;;0.90;0.90;;;3.40;99.90;;;;;;6432056;22;20340;-91
2024/04/23 00:12:05;;;;;;;0.53;0.53;;;3.40;99.90;;;;;;6428316;22;20258;-90
2024/04/23 00:14:31;;;;;;;0.53;0.53;;;3.40;99.90;;;;;;6431544;22;20690;-92
2024/04/23 00:17:04;;;;;;;0.63;0.63;;;3.40;99.90;;;;;;6473384;22;20266;-92
2024/04/23 00:19:30;;;;;;;0.90;0.90;;;3.50;99.90;;;;;;6471161;22;20683;-92
2024/04/23 00:21:56;;;;;;;0.70;0.70;;;3.50;99.90;;;;;;6430343;21;20281;-91
2024/04/23 00:24:22;;;;;;;0.77;0.70;;;3.40;99.90;;;;;;6474005;22;20296;-90
2024/04/23 00:26:57;;;;;;;0.70;0.70;;;3.40;99.90;;;;;;6516499;22;20278;-92
2024/04/23 00:29:23;;;;;;;0.70;0.70;;;3.40;1.00;;;;;;6516267;22;20748;-91
2024/04/23 00:31:48;;;;;;;0.97;0.97;;;3.40;1.00;;;;;;6431710;22;20265;-92
2024/04/23 00:34:14;;;;;;;0.73;0.73;;;3.40;1.00;;;;;;6430938;22;20284;-92
2024/04/23 00:37:02;;;;;;;1.43;0.90;;;3.40;1.00;;;;;;6474198;22;20238;-91
2024/04/23 00:39:27;;;;;;;0.80;0.80;;;3.50;1.00;;;;;;6516283;22;20682;-93
2024/04/23 00:41:53;;;;;;;1.57;1.47;;;3.50;1.00;;;;;;6515583;22;20300;-91
2024/04/23 00:44:19;;;;;;;0.90;0.90;;;3.40;1.00;;;;;;6516228;22;20910;-91
2024/04/23 00:46:46;;;;;;;1.17;1.17;;;3.50;1.00;;;;;;6388130;22;20638;-90
2024/04/23 00:49:17;;;;;;;4.13;1.23;;;3.40;1.00;;;;;;6430658;22;20258;-92
2024/04/23 00:51:48;;;;;;;0.60;0.60;;;3.50;1.00;;;;;;6474150;22;20234;-90
2024/04/23 00:54:16;;;;;;;0.70;0.70;;;3.40;1.00;;;;;;6472609;22;20254;-90
2024/04/23 00:56:42;;;;;;;1.07;0.97;;;3.50;1.00;;;;;;6431600;22;20305;-93
2024/04/23 00:59:12;;;;;;;0.57;0.57;;;3.40;1.00;;;;;;6515923;22;20258;-91
2024/04/23 01:01:38;;;;;;;0.73;0.73;;;3.40;1.00;;;;;;6472650;22;20265;-90
2024/04/23 01:04:05;;;;;;;0.70;0.70;;;3.50;1.00;;;;;;6473722;21;20242;-91
2024/04/23 01:06:31;;;;;;;0.50;0.50;;;3.50;1.00;;;;;;6429843;22;20238;-92
2024/04/23 01:08:57;;;;;;;0.67;0.67;;;3.50;1.00;;;;;;6515878;22;20258;-91
2024/04/23 01:11:23;;;;;;;0.73;0.70;;;3.50;1.00;;;;;;6473421;22;20366;-92
2024/04/23 01:13:49;;;;;;;0.57;0.57;;;3.50;1.00;;;;;;6473386;22;20274;-91
2024/04/23 01:16:16;;;;;;;0.60;0.60;;;3.50;1.00;;;;;;6515884;22;20637;-92
2024/04/23 01:18:44;;;;;;;0.60;0.60;;;3.50;1.00;;;;;;6473979;22;20245;-92
2024/04/23 01:21:11;;;;;;;2.37;1.50;;;3.50;1.00;;;;;;6472226;22;20683;-91
2024/04/23 01:23:48;;;;;;;1.13;1.13;;;3.50;1.00;;;;;;6473397;22;20428;-91
2024/04/23 01:26:15;;;;;;;0.60;0.60;;;3.50;1.00;;;;;;6473034;22;20309;-92
2024/04/23 01:28:42;;;;;;;2.07;1.10;;;3.50;1.00;;;;;;6515998;22;20262;-92
2024/04/23 01:31:09;;;;;;;0.97;0.97;;;3.50;1.00;;;;;;6472314;21;20309;-92
2024/04/23 01:33:37;;;;;;;1.00;0.93;;;3.50;1.90;;;;;;6516603;22;20777;-91
2024/04/23 01:36:05;;;;;;;0.80;0.80;;;3.50;47.30;;;;;;6473143;22;20309;-91
2024/04/23 01:38:32;;;;;;;4.27;2.77;;;3.50;96.50;;;;;;6515708;22;21092;-92
2024/04/23 01:40:59;;;;;;;1.10;1.10;;;3.50;99.90;;;;;;6515262;22;20309;-92
2024/04/23 01:43:25;;;;;;;0.50;0.50;;;3.20;99.90;;;;;;6473253;22;20300;-92
2024/04/23 01:45:51;;;;;;;0.70;0.70;;;2.90;1.00;;;;;;6475098;21;20269;-92
2024/04/23 01:48:17;;;;;;;0.77;0.73;;;2.70;1.00;;;;;;6391012;22;20238;-91
2024/04/23 01:50:44;;;;;;;1.13;1.03;;;2.70;29.90;;;;;;6472726;22;20320;-92
2024/04/23 01:53:09;;;;;;;0.80;0.80;;;2.70;99.90;;;;;;6474698;22;20292;-90
2024/04/23 01:55:35;;;;;;;0.87;0.87;;;2.50;99.90;;;;;;6391700;22;21022;-92
2024/04/23 01:58:01;;;;;;;1.07;1.07;;;2.50;99.90;;;;;;6431185;21;20246;-91
2024/04/23 02:00:29;;;;;;;0.70;0.70;;;2.50;1.00;;;;;;6473697;22;20281;-89
2024/04/23 02:02:56;;;;;;;0.93;0.80;;;2.60;1.00;;;;;;6517515;22;20581;-92
2024/04/23 02:05:24;;;;;;;0.60;0.60;;;2.60;99.90;;;;;;6474783;22;20297;-92
2024/04/23 02:07:50;;;;;;;2.93;1.73;;;2.60;99.90;;;;;;6432912;22;20297;-90
2024/04/23 02:10:16;;;;;;;0.60;0.60;;;2.60;99.90;;;;;;6474214;22;20266;-90
2024/04/23 02:12:42;;;;;;;0.53;0.53;;;2.60;1.00;;;;;;6433236;22;20246;-92
2024/04/23 02:15:08;;;;;;;0.77;0.77;;;2.70;1.00;;;;;;6390788;22;20300;-92
2024/04/23 02:17:35;;;;;;;0.50;0.50;;;2.60;1.00;;;;;;6474284;22;20360;-92
2024/04/23 02:20:04;;;;;;;1.13;1.13;;;2.60;1.00;;;;;;6474539;22;20265;-92
2024/04/23 02:22:30;;;;;;;0.93;0.93;;;2.50;1.00;;;;;;6473893;22;20266;-92
2024/04/23 02:24:56;;;;;;;1.40;1.30;;;2.50;1.00;;;;;;6517587;21;20269;-92
2024/04/23 02:27:21;;;;;;;0.53;0.53;;;2.50;99.90;;;;;;6517428;22;20711;-91
2024/04/23 02:29:47;;;;;;;0.80;0.80;;;2.40;99.90;;;;;;6474256;22;20293;-91
2024/04/23 02:32:13;;;;;;;1.17;1.17;;;2.40;99.90;;;;;;6474432;22;20258;-92
2024/04/23 02:34:38;;;;;;;1.03;1.03;;;2.40;99.90;;;;;;6474661;22;20258;-91
2024/04/23 02:37:04;;;;;;;1.27;1.17;;;2.40;99.90;;;;;;6474646;21;21070;-92
2024/04/23 02:39:30;;;;;;;0.40;0.40;;;2.30;99.90;;;;;;6433126;22;20238;-92
2024/04/23 02:41:56;;;;;;;0.70;0.70;;;2.20;1.00;;;;;;6473488;22;20266;-92
2024/04/23 02:44:21;;;;;;;1.57;0.77;;;2.30;1.00;;;;;;6474172;22;20266;-92
2024/04/23 02:46:47;;;;;;;1.17;0.80;;;2.30;1.00;;;;;;6431698;22;20262;-93
2024/04/23 02:49:13;;;;;;;2.10;0.90;;;2.30;1.00;;;;;;6427378;22;20269;-92
2024/04/23 02:51:53;;;;;;;0.50;0.50;;;2.00;1.00;;;;;;6470027;22;20245;-92
2024/04/23 02:54:19;;;;;;;1.20;1.10;;;1.80;1.00;;;;;;6512037;22;20296;-91
2024/04/23 02:56:47;;;;;;;0.73;0.73;;;1.80;1.00;;;;;;6512376;22;20258;-92
2024/04/23 02:59:22;;;;;;;2.30;1.67;;;1.80;99.90;;;;;;6470067;22;20278;-92
2024/04/23 03:01:48;;;;;;;1.13;0.73;;;1.90;1.00;;;;;;6471238;22;20614;-92
2024/04/23 03:04:14;;;;;;;1.53;1.53;;;1.90;1.00;;;;;;6472251;22;20266;-93
2024/04/23 03:06:39;;;;;;;1.00;1.00;;;2.00;99.90;;;;;;6474306;22;20276;-93
2024/04/23 03:09:05;;;;;;;2.73;1.40;;;2.10;1.00;;;;;;6431745;22;20305;-92
2024/04/23 03:11:31;;;;;;;0.50;0.50;;;2.10;1.00;;;;;;6431202;22;20266;-93
2024/04/23 03:13:57;;;;;;;0.60;0.60;;;2.10;1.00;;;;;;6473677;22;20257;-92
2024/04/23 03:16:22;;;;;;;0.70;0.70;;;2.20;1.00;;;;;;6516507;22;20809;-92
2024/04/23 03:18:48;;;;;;;0.60;0.60;;;2.20;99.90;;;;;;6388045;21;20234;-92
2024/04/23 03:21:14;;;;;;;0.60;0.60;;;2.20;99.90;;;;;;6430962;22;20271;-92
2024/04/23 03:23:39;;;;;;;0.93;0.73;;;2.20;99.90;;;;;;6389643;22;20309;-93
2024/04/23 03:26:05;;;;;;;0.60;0.60;;;2.20;99.90;;;;;;6390403;22;20991;-92
2024/04/23 03:28:31;;;;;;;0.60;0.60;;;2.10;13.00;;;;;;6431302;22;20258;-91
2024/04/23 03:30:56;;;;;;;0.60;0.60;;;2.10;19.30;;;;;;6473115;21;20575;-91
2024/04/23 03:33:22;;;;;;;2.13;1.80;;;2.10;99.90;;;;;;6474153;22;20345;-93
2024/04/23 03:35:48;;;;;;;0.70;0.70;;;2.00;99.90;;;;;;6474020;22;20295;-91
2024/04/23 03:38:13;;;;;;;1.87;1.10;;;2.10;1.00;;;;;;6389807;22;20258;-92
2024/04/23 03:40:39;;;;;;;0.50;0.50;;;2.20;1.00;;;;;;6473040;22;20277;-92
2024/04/23 03:43:05;;;;;;;0.60;0.60;;;2.30;1.00;;;;;;6473676;21;20242;-92
2024/04/23 03:45:31;;;;;;;0.80;0.80;;;2.40;1.00;;;;;;6388266;22;20238;-93
2024/04/23 03:47:57;;;;;;;1.03;1.03;;;2.30;1.00;;;;;;6431562;22;20376;-90
2024/04/23 03:50:22;;;;;;;0.77;0.77;;;2.40;99.90;;;;;;6431530;22;20266;-92
2024/04/23 03:52:48;;;;;;;0.60;0.60;;;2.40;99.90;;;;;;6473681;22;20301;-92
2024/04/23 03:55:15;;;;;;;0.87;0.87;;;2.40;99.90;;;;;;6473308;22;20291;-93
2024/04/23 03:57:41;;;;;;;1.10;0.73;;;2.40;99.90;;;;;;6433408;22;20238;-93
2024/04/23 04:00:07;;;;;;;2.07;1.97;;;2.50;99.90;;;;;;6431374;22;20990;-93
2024/04/23 04:08:01;;;;;;;1.03;1.03;;;2.60;54.10;;;;;;6444034;22;20785;-93
2024/04/23 04:10:27;;;;;;;1.00;0.90;;;2.70;91.10;;;;;;6432711;22;20356;-92
2024/04/23 04:12:52;;;;;;;1.10;1.10;;;2.70;42.60;;;;;;6392898;21;20245;-92
2024/04/23 04:15:18;;;;;;;0.87;0.87;;;2.80;38.00;;;;;;6436648;22;20308;-93
2024/04/23 04:17:44;;;;;;;0.70;0.70;;;2.90;62.90;;;;;;6434429;22;20534;-93
2024/04/23 04:20:10;;;;;;;0.73;0.73;;;2.90;1.00;;;;;;6389802;22;20265;-93
2024/04/23 04:22:35;;;;;;;0.60;0.60;;;2.80;1.00;;;;;;6431677;22;20296;-93
2024/04/23 04:25:01;;;;;;;1.53;1.40;;;2.70;1.00;;;;;;6516047;21;20549;-92
2024/04/23 04:27:27;;;;;;;0.97;0.97;;;2.70;1.00;;;;;;6474036;22;20238;-93
2024/04/23 04:29:53;;;;;;;1.60;0.60;;;2.50;1.00;;;;;;6516141;22;20301;-93
2024/04/23 04:32:18;;;;;;;1.07;1.07;;;2.10;99.90;;;;;;6431266;22;20301;-91
2024/04/23 04:34:44;;;;;;;0.77;0.77;;;1.90;99.90;;;;;;6431872;22;20266;-93
2024/04/23 04:37:10;;;;;;;1.03;1.03;;;1.80;99.90;;;;;;6431214;21;20262;-91
2024/04/23 04:39:38;;;;;;;2.57;1.37;;;1.90;99.90;;;;;;6388072;22;20326;-91
2024/04/23 04:42:04;;;;;;;1.47;1.47;;;2.00;1.00;;;;;;6430955;22;20303;-93
2024/04/23 04:44:30;;;;;;;0.73;0.73;;;2.10;1.00;;;;;;6473143;22;20258;-92
2024/04/23 04:46:55;;;;;;;0.87;0.87;;;2.20;80.10;;;;;;6473292;22;20920;-92
2024/04/23 04:49:21;;;;;;;2.00;1.80;;;2.30;99.90;;;;;;6512755;22;20262;-92
2024/04/23 04:51:47;;;;;;;1.10;1.07;;;2.30;99.90;;;;;;6472967;21;20230;-91
2024/04/23 04:54:13;;;;;;;0.70;0.70;;;2.50;1.00;;;;;;6431663;22;20249;-93
2024/04/23 04:56:38;;;;;;;2.33;2.23;;;2.60;1.00;;;;;;6472699;22;20268;-92
2024/04/23 04:59:04;;;;;;;0.67;0.67;;;2.80;99.90;;;;;;6473207;22;20305;-92
2024/04/23 05:01:30;;;;;;;1.30;1.20;;;3.00;99.90;;;;;;6389488;22;20304;-91
2024/04/23 05:03:57;;;;;;;1.00;1.00;;;3.20;99.90;;;;;;6515964;21;20234;-93
2024/04/23 05:06:23;;;;;;;0.77;0.77;;;3.30;99.90;;;;;;6473401;22;20237;-92
2024/04/23 05:08:49;;;;;;;2.30;2.13;;;3.50;99.90;;;;;;6430523;22;21130;-93
2024/04/23 05:11:15;;;;;;;0.63;0.63;;;3.70;99.90;;;;;;6472880;22;20535;-94
2024/04/23 05:13:40;;;;;;;1.10;1.10;;;3.80;99.90;;;;;;6472900;22;20308;-92
2024/04/23 05:16:06;;;;;;;1.17;1.10;;;4.10;99.90;;;;;;6472658;21;20269;-92
2024/04/23 05:18:32;;;;;;;2.33;1.90;;;4.70;1.00;;;;;;6473680;22;20227;-90
2024/04/23 05:20:58;;;;;;;1.77;1.67;;;6.00;1.00;;;;;;6434299;22;20355;-93
2024/04/23 05:23:24;;;;;;;0.60;0.60;;;7.80;1.00;;;;;;6476311;22;20265;-93
2024/04/23 05:25:50;;;;;;;2.07;1.97;;;10.20;99.90;;;;;;6475163;22;20512;-89
2024/04/23 05:28:15;;;;;;;1.20;0.70;;;12.20;12.10;;;;;;6432261;22;20262;-91
2024/04/23 05:33:26;;;;;;;2.67;1.13;;;15.60;1.00;;;;;;6516149;22;20281;-91
2024/04/23 05:35:52;;;;;;;2.57;1.17;;;16.40;1.00;;;;;;6437609;22;20266;-90
2024/04/23 05:38:17;;;;;;;1.50;1.37;;;16.30;99.90;;;;;;6391437;22;20368;-90
2024/04/23 05:40:46;;;;;;;1.27;1.10;;;16.10;62.10;;;;;;6476406;22;20293;-90
2024/04/23 05:43:12;;;;;;;1.70;1.60;;;16.90;99.90;;;;;;6475871;22;20265;-90
2024/04/23 05:45:38;;;;;;;1.00;1.00;;;17.90;1.00;;;;;;6474608;22;20246;-90
2024/04/23 05:48:41;;;;;;;0.90;0.90;;;19.20;99.90;;;;;;6433716;22;20698;-91
2024/04/23 05:51:44;;;;;;;1.80;1.27;;;20.80;1.00;;;;;;6474439;22;20262;-92
2024/04/23 05:54:48;;;;;;;1.33;1.23;;;22.70;55.60;;;;;;6471017;22;20262;-90
2024/04/23 05:57:14;;;;;;;1.37;1.27;;;23.80;99.90;;;;;;6519814;22;20245;-92
2024/04/23 05:59:40;;;;;;;3.57;1.87;;;22.60;1.00;;;;;;6483146;22;20350;-96
2024/04/23 06:02:06;;;;;;;1.57;1.13;;;21.60;99.90;;;;;;6448000;22;20337;-93
2024/04/23 06:04:32;;;;;;;2.03;0.97;;;19.20;1.00;;;;;;6481037;22;20576;-95
2024/04/23 06:07:00;;;;;;;2.73;0.80;;;17.30;99.90;;;;;;6485788;21;20238;-94
2024/04/23 06:09:29;;;;;;;3.27;1.47;;;16.80;99.90;;;;;;6490822;22;20277;-95
2024/04/23 06:12:00;;;;;;;1.73;1.63;;;18.50;99.90;;;;;;6478596;22;20744;-93
2024/04/23 06:14:26;;;;;;;1.47;1.17;;;20.50;99.90;;;;;;6485733;22;20308;-93
2024/04/23 06:17:14;;;;;;;1.00;0.80;;;22.10;99.90;;;;;;6481925;22;20254;-91
2024/04/23 06:19:48;;;;;;;1.23;1.17;;;21.40;99.90;;;;;;6487028;22;20261;-92
2024/04/23 06:22:14;;;;;;;1.00;0.90;;;20.40;1.00;;;;;;6478701;22;20260;-93
2024/04/23 06:24:43;;;;;;;1.40;1.27;;;21.00;1.00;;;;;;6491431;22;20345;-93
2024/04/23 06:27:09;;;;;;;1.70;1.30;;;22.00;1.00;;;;;;6474904;22;20257;-93
2024/04/23 06:29:40;;;;;;;0.80;0.80;;;23.20;1.00;;;;;;6489702;22;20262;-93
2024/04/23 06:32:13;;;;;;;1.87;1.77;;;24.00;1.00;;;;;;6440592;21;20341;-93
2024/04/23 06:34:39;;;;;;;1.40;1.30;;;24.70;1.00;;;;;;6489169;22;20301;-93
2024/04/23 06:37:08;;;;;;;1.30;1.20;;;24.90;1.00;;;;;;6531515;21;20222;-93
2024/04/23 06:39:41;;;;;;;1.40;0.90;;;25.10;99.90;;;;;;6531775;22;20253;-92
2024/04/23 06:42:07;;;;;;;2.20;1.10;;;25.10;99.90;;;;;;6441937;22;20269;-92
2024/04/23 06:44:34;;;;;;;1.37;1.27;;;25.60;99.90;;;;;;6480792;22;20303;-93
2024/04/23 06:47:02;;;;;;;2.20;1.80;;;25.00;99.90;;;;;;6480607;22;20288;-95
2024/04/23 06:49:38;;;;;;;1.53;1.07;;;24.40;99.90;;;;;;6482198;22;20258;-95
2024/04/23 06:52:09;;;;;;;3.20;1.30;;;23.90;99.90;;;;;;6480858;21;20237;-95
2024/04/23 06:54:42;;;;;;;2.83;1.17;;;25.10;99.90;;;;;;6525592;22;20356;-95
2024/04/23 06:57:14;;;;;;;1.90;1.80;;;25.50;99.90;;;;;;6397528;22;20745;-95
2024/04/23 06:59:46;;;;;;;1.47;1.10;;;26.00;99.90;;;;;;6479865;22;20309;-95
2024/04/23 07:02:15;;;;;;;1.00;1.00;;;25.70;99.90;;;;;;6454576;21;20260;-95
2024/04/23 07:04:44;;;;;;;1.53;1.43;;;25.00;99.90;;;;;;6493611;21;20283;-95
2024/04/23 07:07:10;;;;;;;1.20;1.10;;;25.50;99.90;;;;;;6460749;21;20683;-95
2024/04/23 07:09:36;;;;;;;1.00;0.97;;;24.80;83.90;;;;;;6484061;22;20335;-95
2024/04/23 07:12:04;;;;;;;1.53;1.43;;;24.30;50.50;;;;;;6465782;21;20287;-95
2024/04/23 07:14:45;;;;;;;1.27;1.17;;;24.50;46.10;;;;;;6479543;22;20258;-96
2024/04/23 07:17:19;;;;;;;2.00;1.50;;;23.70;14.80;;;;;;6481099;22;20262;-95
2024/04/23 07:19:53;;;;;;;1.33;1.07;;;23.00;1.00;;;;;;6473324;22;20258;-95
2024/04/23 07:22:21;;;;;;;1.70;1.23;;;21.90;1.00;;;;;;6472035;21;20288;-95
2024/04/23 07:24:57;;;;;;;1.20;1.10;;;22.20;1.00;;;;;;6476057;21;20666;-94
2024/04/23 07:27:23;;;;;;;1.10;1.00;;;23.10;1.00;;;;;;6516572;22;20260;-92
2024/04/23 07:29:52;;;;;;;1.47;1.37;;;24.10;7.80;;;;;;6472577;22;20298;-95
2024/04/23 07:32:26;;;;;;;1.10;1.03;;;24.70;16.60;;;;;;6524456;22;20254;-95
2024/04/23 07:34:58;;;;;;;1.50;1.30;;;23.50;1.00;;;;;;6518114;21;20546;-95
2024/04/23 07:37:37;;;;;;;0.87;0.83;;;24.40;1.00;;;;;;6458370;21;20315;-96
2024/04/23 07:40:15;;;;;;;1.30;1.20;;;24.00;1.00;;;;;;6472254;21;20226;-96
2024/04/23 07:42:57;;;;;;;1.47;1.10;;;23.20;1.00;;;;;;6495390;22;20273;-96
2024/04/23 07:45:23;;;;;;;0.90;0.90;;;24.10;1.00;;;;;;6486128;22;20283;-95
2024/04/23 07:47:49;;;;;;;2.10;1.13;;;24.90;1.00;;;;;;6452108;21;20257;-95
2024/04/23 07:50:23;;;;;;;0.90;0.80;;;25.50;1.00;;;;;;6476248;22;20301;-96
2024/04/23 07:52:49;;;;;;;1.25;0.98;;;25.70;1.00;;;;;;6435478;22;20262;-95
2024/04/23 07:55:15;;;;;;;1.13;1.10;;;25.90;1.00;;;;;;6476570;22;20416;-95
2024/04/23 07:57:48;;;;;;;2.33;1.08;;;25.10;1.00;;;;;;6478570;22;20277;-95
2024/04/23 08:00:20;;;;;;;1.58;1.10;;;25.30;1.00;;;;;;6477189;22;20336;-94
2024/04/23 08:02:52;;;;;;;3.20;1.20;;;25.00;1.00;;;;;;6479281;22;20544;-96
2024/04/23 08:05:33;;;;;;;1.13;1.10;;;24.90;1.00;;;;;;6473676;22;20266;-95
2024/04/23 08:07:59;;;;;;;1.33;1.30;;;25.50;1.00;;;;;;6479345;21;20253;-95
2024/04/23 08:10:53;;;;;;;1.10;1.00;;;25.80;1.00;;;;;;6496059;21;20253;-95
2024/04/23 08:13:32;;;;;;;1.27;1.02;;;25.90;1.00;;;;;;6510099;21;20380;-96
2024/04/23 08:16:03;;;;;;;0.80;0.80;;;26.30;1.00;;;;;;6477841;21;20317;-95
2024/04/23 08:18:34;;;;;;;1.40;1.30;;;25.90;1.00;;;;;;6445955;22;20324;-95
2024/04/23 08:21:10;;;;;;;3.47;1.00;;;24.60;1.00;;;;;;6533826;22;20265;-95
2024/04/23 08:23:53;;;;;;;1.45;0.90;;;24.00;1.00;;;;;;6451781;22;20258;-95
2024/04/23 08:26:27;;;;;;;1.13;1.02;;;23.60;1.00;;;;;;6447783;22;20265;-94
2024/04/23 08:29:23;;;;;;;;;;;;;;;;;;;;;
2024/04/23 08:32:09;;;;;;;1.23;1.13;;;22.40;1.00;;;;;;6515984;22;20285;-95
2024/04/23 08:34:41;;;;;;;1.30;1.17;;;23.40;1.00;;;;;;6406244;21;20264;-96
2024/04/23 08:37:29;;;;;;;;;;;;;;;;;;;;;
2024/04/23 08:40:34;;;;;;;1.20;1.10;;;24.80;1.00;;;;;;6531247;21;20289;-96
2024/04/23 08:43:35;;;;;;;3.65;1.30;;;24.40;1.00;;;;;;6457931;21;20218;-96
2024/04/23 08:46:16;;;;;;;1.50;1.20;;;24.80;1.00;;;;;;6464991;21;20229;-96
2024/04/23 08:48:46;;;;;;;1.80;1.20;;;22.60;1.00;;;;;;6501552;22;20234;-96
2024/04/23 08:51:19;;;;;;;1.50;1.40;;;22.70;1.00;;;;;;6480127;22;20822;-95
2024/04/23 08:53:51;;;;;;;1.30;1.05;;;23.20;1.00;;;;;;6479846;22;20995;-95
2024/04/23 08:56:57;;;;;;;;;;;;;;;;;;;;;
2024/04/23 08:59:34;;;;;;;1.65;1.10;;;21.90;1.00;;;;;;6475324;22;20300;-94
2024/04/23 09:02:15;;;;;;;1.75;1.65;;;22.50;1.00;;;;;;6478220;21;20256;-95
2024/04/23 09:04:53;;;;;;;1.92;1.45;;;23.00;1.00;;;;;;6486872;22;20262;-95
2024/04/23 09:07:34;;;;;;;;;;;;;;;;;;;;;
2024/04/23 09:10:09;;;;;;;1.35;1.25;;;23.00;1.00;;;;;;6473221;21;20359;-96
2024/04/23 09:12:38;;;;;;;0.93;0.90;;;22.50;1.00;;;;;;6521051;22;20237;-95
2024/04/23 09:15:18;;;;;;;2.30;1.50;;;23.10;1.00;;;;;;6474993;21;20257;-96
2024/04/23 09:18:02;;;;;;;0.93;0.80;;;22.20;1.00;;;;;;6519465;21;20251;-95
2024/04/23 09:20:31;;;;;;;1.30;1.20;;;21.60;1.00;;;;;;6439673;22;20362;-93
2024/04/23 09:23:03;;;;;;;5.30;1.20;;;22.50;1.00;;;;;;6476731;22;20359;-93
2024/04/23 09:26:30;;;;;;;1.20;1.02;;;23.30;1.00;;;;;;6518020;22;20261;-96
2024/04/23 09:28:58;;;;;;;1.92;0.98;;;24.30;1.00;;;;;;6448477;21;20708;-96
2024/04/23 09:31:38;;;;;;;1.77;1.48;;;21.90;1.00;;;;;;6479567;22;20694;-95
2024/04/23 09:34:22;;;;;;;2.58;1.35;;;21.50;1.00;;;;;;6478873;21;20558;-96
2024/04/23 09:36:48;;;;;;;1.37;1.13;;;22.10;1.00;;;;;;6478637;21;20234;-92
2024/04/23 09:39:26;;;;;;;2.13;1.10;;;19.00;1.00;;;;;;6477233;22;20698;-95
2024/04/23 09:42:33;;;;;;;;;;;;;;;;;;;;;
2024/04/23 09:45:05;;;;;;;0.90;0.90;;;15.90;1.00;;;;;;6505723;22;20363;-94
2024/04/23 09:47:39;;;;;;;0.80;0.80;;;15.00;1.00;;;;;;6425510;21;20249;-94
2024/04/23 09:50:16;;;;;;;1.03;1.00;;;16.00;1.00;;;;;;6518874;22;20341;-95
2024/04/23 09:52:47;;;;;;;1.27;1.17;;;16.60;1.00;;;;;;6465943;21;20556;-95
2024/04/23 09:55:20;;;;;;;1.20;0.90;;;18.30;1.00;;;;;;6474601;22;20309;-94
2024/04/23 09:58:13;;;;;;;1.33;1.23;;;18.10;1.00;;;;;;6520129;22;20687;-95
2024/04/23 10:00:40;;;;;;;1.10;1.00;;;16.90;1.00;;;;;;6446425;22;20234;-96
2024/04/23 10:03:30;;;;;;;0.83;0.80;;;18.20;1.00;;;;;;6433878;22;20262;-95
2024/04/23 10:06:03;;;;;;;1.03;0.93;;;18.90;1.00;;;;;;6412201;21;20299;-92
2024/04/23 10:08:39;;;;;;;0.67;0.67;;;16.50;1.00;;;;;;6462756;22;20284;-94
2024/04/23 10:11:11;;;;;;;1.07;0.80;;;16.80;1.00;;;;;;6459885;22;20690;-94
2024/04/23 10:13:54;;;;;;;1.93;1.33;;;17.90;1.00;;;;;;6460968;22;20284;-93
2024/04/23 10:16:31;;;;;;;0.70;0.70;;;17.30;1.00;;;;;;6468862;21;20754;-94
2024/04/23 10:19:06;;;;;;;2.20;0.90;;;17.30;1.00;;;;;;6475878;21;20330;-94
2024/04/23 10:21:39;;;;;;;0.47;0.47;;;18.20;1.00;;;;;;6475661;22;20222;-95
2024/04/23 10:24:12;;;;;;;1.87;1.10;;;18.00;1.00;;;;;;6475812;22;20274;-94
2024/04/23 10:26:48;;;;;;;1.37;1.07;;;17.80;1.00;;;;;;6472505;22;20266;-94
2024/04/23 10:29:20;;;;;;;0.77;0.77;;;17.20;1.00;;;;;;6474257;22;20347;-93
2024/04/23 10:32:10;;;;;;;7.20;1.73;;;16.90;1.00;;;;;;6506854;21;20265;-95
2024/04/23 10:34:46;;;;;;;0.70;0.70;;;18.30;1.00;;;;;;6493125;22;20266;-94
2024/04/23 10:37:21;;;;;;;0.77;0.77;;;18.00;1.00;;;;;;6516930;22;20645;-95
2024/04/23 10:42:41;;;;;;;0.67;0.67;;;16.30;1.00;;;;;;6519251;22;20280;-95
2024/04/23 10:45:08;;;;;;;1.47;0.80;;;16.30;1.00;;;;;;6518099;22;20300;-94
2024/04/23 10:47:54;;;;;;;0.73;0.73;;;15.50;1.00;;;;;;6459717;22;20663;-93
2024/04/23 10:50:30;;;;;;;3.63;1.50;;;14.70;1.00;;;;;;6427153;22;20281;-95
2024/04/23 10:52:57;;;;;;;0.83;0.83;;;15.20;1.00;;;;;;6435983;22;20258;-94
2024/04/23 10:55:29;;;;;;;0.80;0.80;;;15.90;1.00;;;;;;6475839;21;20721;-95
2024/04/23 10:57:58;;;;;;;1.23;0.90;;;16.20;1.00;;;;;;6476813;21;20241;-95
2024/04/23 11:00:34;;;;;;;2.40;0.67;;;15.30;1.00;;;;;;6476380;22;21001;-96
2024/04/23 11:03:03;;;;;;;1.97;1.27;;;15.50;1.00;;;;;;6464639;21;20257;-95
2024/04/23 11:05:43;;;;;;;3.93;1.10;;;15.40;1.00;;;;;;6518387;21;20258;-94
2024/04/23 11:08:20;;;;;;;0.83;0.83;;;15.30;1.00;;;;;;6353852;22;20267;-94
2024/04/23 11:10:58;;;;;;;0.87;0.87;;;14.60;1.00;;;;;;6293039;22;20303;-92
2024/04/23 11:13:31;;;;;;;0.80;0.80;;;14.90;1.00;;;;;;6331674;22;20545;-96
2024/04/23 11:16:02;;;;;;;1.03;0.63;;;14.30;1.00;;;;;;6330573;22;20244;-93
2024/04/23 11:18:49;;;;;;;0.80;0.70;;;14.40;1.00;;;;;;6294393;22;20336;-91
2024/04/23 11:21:31;;;;;;;0.67;0.67;;;15.00;1.00;;;;;;6317169;22;20241;-96
2024/04/23 11:24:02;;;;;;;0.80;0.77;;;14.10;1.00;;;;;;6332325;22;20260;-93
2024/04/23 11:26:58;;;;;;;0.87;0.87;;;13.70;1.00;;;;;;6414220;22;20276;-92
2024/04/23 11:29:25;;;;;;;1.00;1.00;;;14.20;1.00;;;;;;6339249;22;20298;-95
2024/04/23 11:31:55;;;;;;;1.43;1.33;;;14.50;1.00;;;;;;6413243;22;20267;-94
2024/04/23 11:34:24;;;;;;;1.00;0.90;;;14.40;1.00;;;;;;6331849;22;20795;-94
2024/04/23 11:36:55;;;;;;;1.13;1.03;;;13.70;1.00;;;;;;6331155;22;20764;-94
2024/04/23 11:39:32;;;;;;;2.13;0.90;;;13.60;1.00;;;;;;6473479;22;20226;-94
2024/04/23 11:41:59;;;;;;;0.60;0.60;;;13.40;1.00;;;;;;6472157;22;20297;-94
2024/04/23 11:44:38;;;;;;;0.80;0.80;;;13.60;1.00;;;;;;6473137;22;20319;-92
2024/04/23 11:47:13;;;;;;;0.77;0.73;;;13.60;1.00;;;;;;6437654;22;20695;-93
2024/04/23 11:49:45;;;;;;;2.00;0.57;;;13.30;1.00;;;;;;6467820;21;20257;-93
2024/04/23 11:52:16;;;;;;;1.07;0.70;;;12.50;1.00;;;;;;6472624;22;20258;-93
2024/04/23 11:54:47;;;;;;;0.50;0.50;;;12.00;1.00;;;;;;6474730;22;20655;-96
2024/04/23 11:57:18;;;;;;;1.10;0.90;;;11.80;1.00;;;;;;6434481;22;20242;-93
2024/04/23 11:59:47;;;;;;;0.63;0.63;;;11.30;99.90;;;;;;6474965;22;20266;-94
2024/04/23 12:02:15;;;;;;;0.67;0.67;;;11.30;99.90;;;;;;6459525;21;20280;-95
2024/04/23 12:04:43;;;;;;;1.60;0.97;;;11.30;99.90;;;;;;6474316;22;20273;-95
2024/04/23 12:07:16;;;;;;;0.87;0.87;;;11.20;99.90;;;;;;6472330;21;20317;-94
2024/04/23 12:09:41;;;;;;;1.10;0.87;;;11.20;99.90;;;;;;6517839;22;20437;-93
2024/04/23 12:12:17;;;;;;;;;;;;;;;;;;;;;
2024/04/23 12:14:54;;;;;;;;;;;;;;;;;;;;;
2024/04/23 12:17:24;;;;;;;0.80;0.80;;;10.80;99.90;;;;;;6523601;21;20260;-93
2024/04/23 12:19:55;;;;;;;1.07;0.77;;;10.70;99.90;;;;;;6512572;22;20564;-94
2024/04/23 12:22:21;;;;;;;1.20;1.10;;;10.60;99.90;;;;;;6469019;22;20391;-94
2024/04/23 12:24:48;;;;;;;1.03;1.03;;;10.70;99.90;;;;;;6470169;22;20686;-95
2024/04/23 12:27:17;;;;;;;2.23;0.57;;;10.20;99.90;;;;;;6472199;22;20613;-92
2024/04/23 12:29:43;;;;;;;0.93;0.93;;;10.20;99.90;;;;;;6472181;22;20316;-93
2024/04/23 12:32:30;;;;;;;1.20;1.20;;;10.30;99.90;;;;;;6474368;22;20381;-94
2024/04/23 12:34:57;;;;;;;0.70;0.70;;;10.30;99.90;;;;;;6473191;22;20258;-93
2024/04/23 12:37:25;;;;;;;0.63;0.57;;;10.30;99.90;;;;;;6515372;22;20300;-95
2024/04/23 12:39:53;;;;;;;0.50;0.50;;;10.30;99.90;;;;;;6471575;21;20234;-93
2024/04/23 12:42:24;;;;;;;2.67;0.83;;;10.10;1.00;;;;;;6517329;22;20612;-93
2024/04/23 12:44:53;;;;;;;0.40;0.40;;;10.20;1.00;;;;;;6516193;22;20296;-93
2024/04/23 12:47:22;;;;;;;5.30;1.17;;;10.00;1.00;;;;;;6432419;22;20296;-93
2024/04/23 12:49:49;;;;;;;0.60;0.60;;;10.00;1.00;;;;;;6517509;22;20288;-93
2024/04/23 12:52:15;;;;;;;1.47;1.23;;;10.10;1.00;;;;;;6474023;22;20317;-92
2024/04/23 12:54:46;;;;;;;0.30;0.30;;;10.20;85.50;;;;;;6431418;22;20440;-92
2024/04/23 12:57:17;;;;;;;0.87;0.87;;;10.20;99.90;;;;;;6469255;22;20261;-95
2024/04/23 12:59:49;;;;;;;4.30;1.20;;;10.10;99.90;;;;;;6511597;22;20309;-95
2024/04/23 13:02:23;;;;;;;2.53;0.83;;;10.40;99.90;;;;;;6511082;22;20293;-92
2024/04/23 13:04:49;;;;;;;0.97;0.97;;;10.60;99.90;;;;;;6469039;22;20265;-93
2024/04/23 13:07:15;;;;;;;0.57;0.57;;;10.60;99.90;;;;;;6417922;21;20276;-94
2024/04/23 13:09:41;;;;;;;2.10;0.90;;;10.40;99.90;;;;;;6513195;22;20984;-95
2024/04/23 13:12:13;;;;;;;2.23;1.00;;;10.30;99.90;;;;;;6470490;22;20309;-93
2024/04/23 13:14:41;;;;;;;0.67;0.50;;;10.30;99.90;;;;;;6470173;22;20261;-93
2024/04/23 13:17:10;;;;;;;1.77;0.97;;;10.20;99.90;;;;;;6468380;22;21051;-94
2024/04/23 13:19:36;;;;;;;0.50;0.50;;;10.20;99.90;;;;;;6423914;21;20253;-94
2024/04/23 13:22:02;;;;;;;0.70;0.70;;;10.00;99.90;;;;;;6515808;21;20791;-92
2024/04/23 13:24:27;;;;;;;1.73;1.57;;;9.90;99.90;;;;;;6516657;22;20997;-92
2024/04/23 13:26:56;;;;;;;1.43;0.80;;;9.80;99.90;;;;;;6472666;22;20287;-93
2024/04/23 13:29:22;;;;;;;2.10;0.80;;;9.80;99.90;;;;;;6474404;22;20265;-91
2024/04/23 13:31:49;;;;;;;1.70;0.60;;;10.00;99.90;;;;;;6515334;22;20300;-92
2024/04/23 13:34:17;;;;;;;0.50;0.50;;;10.10;99.90;;;;;;6467194;21;20257;-93
2024/04/23 13:36:43;;;;;;;1.10;0.83;;;10.00;99.90;;;;;;6474621;22;20234;-93